ユジノサハリンスク の空港の天気 - METARとTAF

ホムトヴォ空港(ユジノサハリンスク) ( UHSS / UUS ) - ロシア ユジノサハリンスク
飛行場実況気象(Metar)
観測時間05/25 20:00 +10 (05/25 10:00 UTC)
風向・風速北 4m/s
視程10km以上
天気現象
全天の8割程度の雲 雲底高度 340m
気温7℃
湿度87%
気圧1014hPa
METARUHSS 251000Z 36004MPS 9999 BKN011CB 07/05 Q1014 R01/70D NOSIG RMK MT OBSC QFE759/1013
過去の天気等 Google飛行場航空写真 Wunderground天気予報

過去48時間のMETAR

飛行場予報(TAF)
発表時間: 5/25 18:00 +10 (5/25 08:00 UTC)
予報対象時間: 25日19時 +10 ~ 27日1時 +10
風向・風速北 3m/s
視程10km以上
全天の4割程度の雲 雲底高度 240m
全天の4割程度の積乱雲 雲底高度 1,220m
25日19時 +10 ~ 26日6時 +10 に一時的に
視程3,000m
天気現象もや
全天の8割程度の雲 雲底高度 120m
全天の8割程度の積乱雲 雲底高度 910m
TAF UHSS 250800Z 2509/2615 36003MPS 9999 SCT008 SCT040CB
TEMPO 2509/2520 3000 BR BKN004 BKN030CB